Terminal Aerodrome Forecast
Issued by NWS

Current Version | Previous Version | Text Only | Print | Product List | Glossary On
Versions: 1 2 3 4 5 6 7 8 9 10 11 12 13
000
FTUS42 KMLB 310500
TAFISM
TAF
KISM 310538Z 3106/0106 28005KT P6SM VCSH SCT040 BKN100
      TEMPO 3108/3111 BKN030 BKN060
     FM311300 31007KT P6SM SCT050 SCT250
      AMD NOT SKED TIL 311100=

USA.gov is the U.S. government's official web portal to all federal, state and local government web resources and services.